»·PEaware :: UAL837 KSAN-KSFO

UAL837 :: KSAN-KSFO

FLIGHT INFORMATION

Flight Status: Arrived
Operator:
United Airlines
More flights by this operator :: More flights under this callsign
Pilot: Pratham R. (19019)
Aircraft: AIRBUS A319
(A319)
More flights by this aircraft type
Origin: KSAN San Diego Intl-Lindbergh
United States
Destination: KSFO San Francisco Intl
United States
More flights between these airports :: More routes between these airports
Route: PADRZ2 IKAYE RIZIN SPLNT STOKD SERFR SERFR4
File this flight plan on PilotEdge
Remarks: RMK / SIMBRIEF
Altitude:
(Current/Filed)
36,000ft
Speed:
(Current/Filed)
464kts
Departed: 30-Aug-20 09:42 PM
Arrived: 30-Aug-20 10:47 PM
Distance/Time
Traveled:
388nm/1:05
Distance/Time
To Go:
Arrived

Flight Plot

Page will automatically refresh every two minutes.

Flight plan parsing failed; only flown route is shown


Map Options




Map Legend


Flown Route
Filed Route
Departure Airport
Arrival Airport
Navaid (VOR, NDB)
Fix

Horizontal Profiles

Position Reports

Time Latitude Longitude Heading Altitude Ground
Speed
30-Aug-20 21:09 32.733750 -117.203540 270 19ft 0kts
30-Aug-20 21:10 32.733750 -117.203540 270 19ft 0kts
30-Aug-20 21:11 32.733750 -117.203540 270 19ft 0kts
30-Aug-20 21:12 32.733750 -117.203540 270 19ft 0kts
30-Aug-20 21:13 32.733750 -117.203540 270 19ft 0kts
30-Aug-20 21:14 32.733750 -117.203540 270 19ft 0kts
30-Aug-20 21:15 32.733750 -117.203540 270 19ft 0kts
30-Aug-20 21:16 32.733750 -117.203540 270 19ft 0kts
30-Aug-20 21:17 32.733750 -117.203540 270 19ft 0kts
30-Aug-20 21:18 32.733750 -117.203540 270 19ft 0kts
30-Aug-20 21:19 32.733750 -117.203540 270 19ft 0kts
30-Aug-20 21:20 32.733750 -117.203540 270 19ft 0kts
30-Aug-20 21:21 32.733750 -117.203540 270 19ft 0kts
30-Aug-20 21:22 32.733750 -117.203540 270 19ft 0kts
30-Aug-20 21:23 32.733750 -117.203540 270 19ft 0kts
30-Aug-20 21:24 32.733750 -117.203540 270 19ft 0kts
30-Aug-20 21:25 32.733750 -117.203540 270 19ft 0kts
30-Aug-20 21:26 32.733750 -117.203540 270 19ft 0kts
30-Aug-20 21:27 32.733750 -117.203540 270 19ft 0kts
30-Aug-20 21:28 32.733750 -117.203348 269 19ft 2kts
30-Aug-20 21:29 32.733633 -117.202722 337 19ft 1kts
30-Aug-20 21:30 32.733548 -117.202695 344 19ft 0kts
30-Aug-20 21:31 32.733548 -117.202695 344 19ft 0kts
30-Aug-20 21:32 32.733548 -117.202695 344 19ft 0kts
30-Aug-20 21:33 32.733548 -117.202695 344 19ft 0kts
30-Aug-20 21:34 32.733548 -117.202695 344 19ft 0kts
30-Aug-20 21:35 32.734647 -117.202528 14 19ft 11kts
30-Aug-20 21:36 32.734669 -117.198529 106 19ft 18kts
30-Aug-20 21:37 32.733109 -117.192040 104 21ft 25kts
30-Aug-20 21:38 32.731016 -117.183418 106 19ft 28kts
30-Aug-20 21:39 32.729520 -117.177230 105 23ft 10kts
30-Aug-20 21:40 32.730443 -117.176856 285 25ft 9kts
30-Aug-20 21:41 32.736828 -117.203174 286 511ft 158kts
30-Aug-20 21:42 32.760327 -117.248883 302 3004ft 191kts
30-Aug-20 21:43 32.795145 -117.311886 301 5421ft 265kts
30-Aug-20 21:44 32.841370 -117.384340 0 8805ft 0kts
30-Aug-20 21:45 32.892124 -117.462660 305 11372ft 334kts
30-Aug-20 21:46 32.952231 -117.556138 305 14045ft 366kts
30-Aug-20 21:47 33.013216 -117.651394 305 14962ft 373kts
30-Aug-20 21:48 33.080691 -117.747721 317 16827ft 385kts
30-Aug-20 21:49 33.164750 -117.832738 319 19309ft 401kts
30-Aug-20 21:50 33.246901 -117.925283 313 21613ft 412kts
30-Aug-20 21:51 33.328653 -118.023192 311 23687ft 422kts
30-Aug-20 21:52 33.412340 -118.123456 310 25590ft 431kts
30-Aug-20 21:53 33.497619 -118.225895 309 27347ft 438kts
30-Aug-20 21:54 33.584207 -118.330223 309 28891ft 445kts
30-Aug-20 21:55 33.671833 -118.436120 308 30236ft 452kts
30-Aug-20 21:56 33.760905 -118.544045 308 31690ft 453kts
30-Aug-20 21:57 33.847529 -118.649254 308 33655ft 435kts
30-Aug-20 21:58 33.929852 -118.749997 307 35167ft 427kts
30-Aug-20 21:59 34.012943 -118.851611 307 35926ft 426kts
30-Aug-20 22:00 34.095995 -118.953348 307 35932ft 426kts
30-Aug-20 22:01 34.170025 -119.063776 296 35932ft 418kts
30-Aug-20 22:02 34.231631 -119.182778 296 35929ft 418kts
30-Aug-20 22:03 34.292753 -119.301752 296 35927ft 418kts
30-Aug-20 22:04 34.354040 -119.421417 296 35925ft 418kts
30-Aug-20 22:05 34.432723 -119.526888 311 35920ft 430kts
30-Aug-20 22:06 34.521961 -119.623857 311 35917ft 431kts
30-Aug-20 22:07 34.610758 -119.721561 310 35933ft 432kts
30-Aug-20 22:08 34.699674 -119.819647 311 35936ft 432kts
30-Aug-20 22:09 34.788607 -119.917930 311 35940ft 432kts
30-Aug-20 22:10 34.877645 -120.016612 311 35944ft 432kts
30-Aug-20 22:12 34.966397 -120.115468 312 35946ft 433kts
30-Aug-20 22:13 35.055618 -120.214969 314 35949ft 437kts
30-Aug-20 22:14 35.145338 -120.314819 314 35954ft 437kts
30-Aug-20 22:15 35.234833 -120.414859 314 35950ft 437kts
30-Aug-20 22:16 35.324154 -120.515361 314 35946ft 437kts
30-Aug-20 22:17 35.412205 -120.614773 314 35945ft 436kts
30-Aug-20 22:18 35.501359 -120.716046 313 35939ft 436kts
30-Aug-20 22:19 35.590205 -120.817182 313 35938ft 436kts
30-Aug-20 22:20 35.679138 -120.918546 314 35936ft 437kts
30-Aug-20 22:21 35.768172 -121.020382 314 35937ft 437kts
30-Aug-20 22:22 35.857209 -121.122542 316 35935ft 440kts
30-Aug-20 22:23 35.947292 -121.226092 316 35806ft 444kts
30-Aug-20 22:24 36.041033 -121.333646 318 32104ft 463kts
30-Aug-20 22:25 36.146540 -121.426348 328 28340ft 466kts
30-Aug-20 22:26 36.254440 -121.510022 328 25749ft 442kts
30-Aug-20 22:27 36.355917 -121.589515 328 23661ft 421kts
30-Aug-20 22:28 36.453014 -121.665944 327 21637ft 405kts
30-Aug-20 22:28 36.528563 -121.725783 327 20739ft 374kts
30-Aug-20 22:30 36.629645 -121.805760 328 18725ft 361kts
30-Aug-20 22:31 36.713790 -121.872497 328 17043ft 351kts
30-Aug-20 22:31 36.789092 -121.908198 348 15622ft 342kts
30-Aug-20 22:33 36.896682 -121.937650 348 13687ft 332kts
30-Aug-20 22:33 36.971182 -121.960622 343 12315ft 326kts
30-Aug-20 22:34 37.056736 -121.994031 342 10738ft 316kts
30-Aug-20 22:36 37.148440 -122.029786 341 9789ft 279kts
30-Aug-20 22:36 37.209849 -122.053831 341 8711ft 275kts
30-Aug-20 22:37 37.280495 -122.081513 341 7945ft 247kts
30-Aug-20 22:38 37.346236 -122.107438 341 6564ft 249kts
30-Aug-20 22:39 37.413207 -122.131911 344 4979ft 251kts
30-Aug-20 22:40 37.477757 -122.154011 344 3700ft 225kts
30-Aug-20 22:41 37.532533 -122.175230 316 3073ft 187kts
30-Aug-20 22:42 37.558709 -122.231879 298 2280ft 186kts
30-Aug-20 22:43 37.580121 -122.283647 298 1408ft 149kts
30-Aug-20 22:44 37.598631 -122.327356 300 576ft 127kts
30-Aug-20 22:45 37.614897 -122.365897 299 19ft 112kts
30-Aug-20 22:46 37.619623 -122.379403 229 18ft 13kts
30-Aug-20 22:47 37.617915 -122.380325 256 18ft 5kts
30-Aug-20 22:48 37.617857 -122.380663 258 18ft 0kts
30-Aug-20 22:49 37.617857 -122.380663 258 18ft 0kts
30-Aug-20 22:50 37.617857 -122.380663 258 18ft 0kts
30-Aug-20 22:51 37.617857 -122.380663 258 18ft 0kts
30-Aug-20 22:52 37.617857 -122.380663 258 18ft 0kts
30-Aug-20 22:53 37.617857 -122.380663 258 18ft 0kts
30-Aug-20 22:54 37.617857 -122.380663 258 18ft 0kts
30-Aug-20 22:55 37.617857 -122.380663 258 18ft 0kts
30-Aug-20 22:56 37.617857 -122.380663 258 18ft 0kts
30-Aug-20 22:57 37.617857 -122.380663 258 18ft 0kts
30-Aug-20 22:58 37.617857 -122.380663 258 18ft 0kts
30-Aug-20 22:59 37.617857 -122.380663 258 18ft 0kts
30-Aug-20 23:00 37.617857 -122.380663 258 18ft 0kts

Navigation Log

Ident Type
Flight plan parsing failed, navigation log unavailable